Time;durP1;ratioP1;P1;durP2;ratioP2;P2;SDS_P1;SDS_P2;PMS_P1;PMS_P2;Temp;Humidity;BMP_temperature;BMP_pressure;BME280_temperature;BME280_humidity;BME280_pressure;Samples;Min_cycle;Max_cycle;Signal;HPM_P1;HPM_P2
2023/08/05 00:00:52;;;;;;;;;;;22.90;61.80;;;;;;8359637;28;19919;-73
2023/08/05 00:04:53;;;;;;;;;;;22.90;61.90;;;;;;8362131;28;19920;-73
2023/08/05 00:08:53;;;;;;;;;;;22.90;61.90;;;;;;8396795;28;19923;-73
2023/08/05 00:12:54;;;;;;;;;;;22.90;61.70;;;;;;8399184;28;19912;-74
2023/08/05 00:16:54;;;;;;;;;;;22.90;61.70;;;;;;8380086;28;20003;-75
2023/08/05 00:20:55;;;;;;;;;;;22.90;61.70;;;;;;8396947;28;19913;-75
2023/08/05 00:24:55;;;;;;;;;;;22.80;61.60;;;;;;8397404;28;19918;-73
2023/08/05 00:28:56;;;;;;;;;;;22.80;61.50;;;;;;8380908;28;20393;-75
2023/08/05 00:32:57;;;;;;;;;;;22.80;61.60;;;;;;8399051;28;19958;-75
2023/08/05 00:36:57;;;;;;;;;;;22.80;61.60;;;;;;8380556;28;19912;-75
2023/08/05 00:40:58;;;;;;;;;;;22.80;61.60;;;;;;8382652;28;19913;-75
2023/08/05 00:44:58;;;;;;;;;;;22.80;61.60;;;;;;8398469;28;19916;-75
2023/08/05 00:48:59;;;;;;;;;;;22.80;61.60;;;;;;8403309;28;19918;-75
2023/08/05 00:52:59;;;;;;;;;;;22.80;61.50;;;;;;8407488;28;19912;-75
2023/08/05 00:57:00;;;;;;;;;;;22.80;61.60;;;;;;8400127;28;19956;-75
2023/08/05 01:01:00;;;;;;;;;;;22.80;61.60;;;;;;8399660;28;20263;-75
2023/08/05 01:05:01;;;;;;;;;;;22.80;61.60;;;;;;8400160;28;19995;-75
2023/08/05 01:09:02;;;;;;;;;;;22.80;61.50;;;;;;8398682;28;19924;-75
2023/08/05 01:13:02;;;;;;;;;;;22.80;61.50;;;;;;8364174;28;19962;-75
2023/08/05 01:17:03;;;;;;;;;;;22.80;61.50;;;;;;8380849;28;19970;-75
2023/08/05 01:21:06;;;;;;;;;;;22.80;61.50;;;;;;8380738;28;20310;-75
2023/08/05 01:25:22;;;;;;;;;;;22.80;61.50;;;;;;8398157;28;19909;-75
2023/08/05 01:29:23;;;;;;;;;;;22.80;61.50;;;;;;8380510;28;19917;-75
2023/08/05 01:33:23;;;;;;;;;;;22.80;61.50;;;;;;8381006;28;19909;-75
2023/08/05 01:37:24;;;;;;;;;;;22.70;61.50;;;;;;8399596;28;20408;-75
2023/08/05 01:41:25;;;;;;;;;;;22.70;61.50;;;;;;8399221;28;19916;-75
2023/08/05 01:45:25;;;;;;;;;;;22.70;61.50;;;;;;8381604;28;19913;-75
2023/08/05 01:49:26;;;;;;;;;;;22.70;61.50;;;;;;8398700;28;19923;-75
2023/08/05 01:53:26;;;;;;;;;;;22.70;61.60;;;;;;8398489;28;19908;-75
2023/08/05 01:57:27;;;;;;;;;;;22.70;61.60;;;;;;8397647;28;19917;-75
2023/08/05 02:01:44;;;;;;;;;;;22.70;61.60;;;;;;8379034;28;20183;-75
2023/08/05 02:05:44;;;;;;;;;;;22.70;61.50;;;;;;8396976;28;20400;-75
2023/08/05 02:09:45;;;;;;;;;;;22.70;61.50;;;;;;8378971;28;19924;-75
2023/08/05 02:13:45;;;;;;;;;;;22.70;61.50;;;;;;8379045;28;19913;-75
2023/08/05 02:17:46;;;;;;;;;;;22.70;61.50;;;;;;8397040;28;20366;-75
2023/08/05 02:21:46;;;;;;;;;;;22.70;61.50;;;;;;8378714;28;19913;-75
2023/08/05 02:25:47;;;;;;;;;;;22.70;61.50;;;;;;8396120;28;19924;-75
2023/08/05 02:29:47;;;;;;;;;;;22.70;61.50;;;;;;8378030;28;19976;-75
2023/08/05 02:33:48;;;;;;;;;;;22.70;61.50;;;;;;8396212;28;19966;-75
2023/08/05 02:37:48;;;;;;;;;;;22.70;61.50;;;;;;8396096;28;19951;-75
2023/08/05 02:41:49;;;;;;;;;;;22.70;61.50;;;;;;8361369;28;20003;-75
2023/08/05 02:45:54;;;;;;;;;;;22.70;61.50;;;;;;8377921;28;19962;-75
2023/08/05 02:49:56;;;;;;;;;;;22.70;61.60;;;;;;8377547;28;20392;-75
2023/08/05 02:53:56;;;;;;;;;;;22.70;61.50;;;;;;8395446;28;19919;-75
2023/08/05 02:57:57;;;;;;;;;;;22.60;61.30;;;;;;8395133;28;19908;-75
2023/08/05 03:01:57;;;;;;;;;;;22.70;61.50;;;;;;8394977;28;19939;-75
2023/08/05 03:05:58;;;;;;;;;;;22.70;61.50;;;;;;8377373;28;20003;-75
2023/08/05 03:09:58;;;;;;;;;;;22.70;61.50;;;;;;8376868;28;19924;-75
2023/08/05 03:13:59;;;;;;;;;;;22.60;61.50;;;;;;8376097;28;19916;-75
2023/08/05 03:17:59;;;;;;;;;;;22.60;61.50;;;;;;8394776;28;19913;-75
2023/08/05 03:22:00;;;;;;;;;;;22.60;61.40;;;;;;8376830;28;19919;-75
2023/08/05 03:26:00;;;;;;;;;;;22.60;61.40;;;;;;8376343;28;19923;-75
2023/08/05 03:30:01;;;;;;;;;;;22.70;61.50;;;;;;8394244;28;20325;-75
2023/08/05 03:34:01;;;;;;;;;;;22.60;61.50;;;;;;8376695;28;20344;-75
2023/08/05 03:38:02;;;;;;;;;;;22.60;61.40;;;;;;8376199;28;19920;-75
2023/08/05 03:42:03;;;;;;;;;;;22.60;61.40;;;;;;8394030;28;19961;-75
2023/08/05 03:46:03;;;;;;;;;;;22.60;61.40;;;;;;8375886;28;19917;-75
2023/08/05 03:50:05;;;;;;;;;;;22.60;61.30;;;;;;8393908;28;19919;-75
2023/08/05 03:54:05;;;;;;;;;;;22.60;61.30;;;;;;8342713;28;19944;-75
2023/08/05 03:58:07;;;;;;;;;;;22.70;62.20;;;;;;8375343;28;19912;-75
2023/08/05 04:02:08;;;;;;;;;;;22.60;61.40;;;;;;8394223;28;19916;-75
2023/08/05 04:06:10;;;;;;;;;;;22.70;61.40;;;;;;8393292;28;19913;-75
2023/08/05 04:10:12;;;;;;;;;;;22.60;61.40;;;;;;8359153;28;20007;-75
2023/08/05 04:14:14;;;;;;;;;;;22.60;61.40;;;;;;8375607;28;20426;-75
2023/08/05 04:18:15;;;;;;;;;;;22.60;61.40;;;;;;8375465;28;19909;-75
2023/08/05 04:22:19;;;;;;;;;;;22.60;61.40;;;;;;8393437;28;19913;-75
2023/08/05 04:26:20;;;;;;;;;;;22.60;61.40;;;;;;8398980;28;19919;-75
2023/08/05 04:30:20;;;;;;;;;;;22.60;61.40;;;;;;8400160;28;19913;-75
2023/08/05 04:34:21;;;;;;;;;;;22.60;61.40;;;;;;8400241;28;19916;-75
2023/08/05 04:38:21;;;;;;;;;;;22.60;61.40;;;;;;8365202;28;20344;-75
2023/08/05 04:42:22;;;;;;;;;;;22.60;61.40;;;;;;8399470;28;19913;-75
2023/08/05 04:46:22;;;;;;;;;;;22.60;61.30;;;;;;8399690;28;19991;-75
2023/08/05 04:50:23;;;;;;;;;;;22.60;61.30;;;;;;8348409;28;20566;-75
2023/08/05 04:54:24;;;;;;;;;;;22.60;61.50;;;;;;8398715;28;20270;-75
2023/08/05 04:58:24;;;;;;;;;;;22.60;61.40;;;;;;8399100;28;19999;-75
2023/08/05 05:02:25;;;;;;;;;;;22.60;61.30;;;;;;8381444;28;20049;-75
2023/08/05 05:06:25;;;;;;;;;;;22.60;61.30;;;;;;8398802;28;19920;-75
2023/08/05 05:10:26;;;;;;;;;;;22.60;61.30;;;;;;8398839;28;19920;-75
2023/08/05 05:14:26;;;;;;;;;;;22.60;61.30;;;;;;8398951;28;20420;-75
2023/08/05 05:18:27;;;;;;;;;;;22.60;61.30;;;;;;8364008;28;19995;-75
2023/08/05 05:22:27;;;;;;;;;;;22.60;61.30;;;;;;8364033;28;19920;-75
2023/08/05 05:26:28;;;;;;;;;;;22.60;61.30;;;;;;8379922;28;19912;-75
2023/08/05 05:30:28;;;;;;;;;;;22.60;61.40;;;;;;8380096;28;19924;-75
2023/08/05 05:34:29;;;;;;;;;;;22.60;61.40;;;;;;8397542;28;19919;-75
2023/08/05 05:38:29;;;;;;;;;;;22.60;61.40;;;;;;8363079;28;19938;-75
2023/08/05 05:42:30;;;;;;;;;;;22.60;61.40;;;;;;8363180;28;19935;-75
2023/08/05 05:46:34;;;;;;;;;;;22.60;61.40;;;;;;8397793;28;19923;-75
2023/08/05 05:50:37;;;;;;;;;;;22.60;61.30;;;;;;8379514;28;19962;-75
2023/08/05 05:54:38;;;;;;;;;;;22.60;61.40;;;;;;8396960;28;19915;-75
2023/08/05 05:58:38;;;;;;;;;;;22.60;61.30;;;;;;8379545;28;19908;-75
2023/08/05 06:02:39;;;;;;;;;;;22.60;61.30;;;;;;8397123;28;20337;-75
2023/08/05 06:06:40;;;;;;;;;;;22.60;61.30;;;;;;8397122;28;19966;-75
2023/08/05 06:10:40;;;;;;;;;;;22.60;61.30;;;;;;8379031;28;20302;-75
2023/08/05 06:14:41;;;;;;;;;;;22.60;61.40;;;;;;8378873;28;20011;-75
2023/08/05 06:18:41;;;;;;;;;;;22.60;61.30;;;;;;8378947;28;19931;-75
2023/08/05 06:22:42;;;;;;;;;;;22.60;61.30;;;;;;8379125;28;20344;-75
2023/08/05 06:26:42;;;;;;;;;;;22.60;61.30;;;;;;8396066;28;19912;-75
2023/08/05 06:30:44;;;;;;;;;;;22.60;61.30;;;;;;8361527;28;19935;-75
2023/08/05 06:34:44;;;;;;;;;;;22.60;61.30;;;;;;8378517;28;19909;-75
2023/08/05 06:38:45;;;;;;;;;;;22.60;61.30;;;;;;8361521;28;19943;-75
2023/08/05 06:42:45;;;;;;;;;;;22.60;61.30;;;;;;8377938;28;19952;-75
2023/08/05 06:46:46;;;;;;;;;;;22.60;61.40;;;;;;8395964;28;19920;-75
2023/08/05 06:50:46;;;;;;;;;;;22.50;61.30;;;;;;8395723;28;20412;-75
2023/08/05 06:54:47;;;;;;;;;;;22.60;61.40;;;;;;8377105;28;19950;-75
2023/08/05 06:58:48;;;;;;;;;;;22.60;61.40;;;;;;8395554;28;19912;-75
2023/08/05 07:02:48;;;;;;;;;;;22.60;61.30;;;;;;8377414;28;19920;-75
2023/08/05 07:06:49;;;;;;;;;;;22.60;61.30;;;;;;8377546;28;19948;-75
2023/08/05 07:10:53;;;;;;;;;;;22.60;61.30;;;;;;8343802;28;19920;-75
2023/08/05 07:14:54;;;;;;;;;;;22.60;61.30;;;;;;8361811;28;19948;-75
2023/08/05 07:18:54;;;;;;;;;;;22.60;61.30;;;;;;8362326;28;19913;-75
2023/08/05 07:22:55;;;;;;;;;;;22.50;61.20;;;;;;8361568;28;19912;-75
2023/08/05 07:26:55;;;;;;;;;;;22.60;61.30;;;;;;8343271;28;19913;-75
2023/08/05 07:31:07;;;;;;;;;;;22.60;61.30;;;;;;8327051;28;19921;-75
2023/08/05 07:35:07;;;;;;;;;;;22.60;61.30;;;;;;8361856;28;19908;-75
2023/08/05 07:39:08;;;;;;;;;;;22.60;61.30;;;;;;8361372;28;19920;-75
2023/08/05 07:43:09;;;;;;;;;;;22.60;61.30;;;;;;8361065;28;20286;-75
2023/08/05 07:47:09;;;;;;;;;;;22.50;61.20;;;;;;8361473;28;19913;-75
2023/08/05 07:51:10;;;;;;;;;;;22.50;61.20;;;;;;8343664;28;20305;-75
2023/08/05 07:55:11;;;;;;;;;;;22.50;61.20;;;;;;8343062;28;19927;-73
2023/08/05 07:59:12;;;;;;;;;;;22.50;61.30;;;;;;8343729;28;19917;-74
2023/08/05 08:03:13;;;;;;;;;;;22.60;61.40;;;;;;8343924;28;19920;-74
2023/08/05 08:07:13;;;;;;;;;;;22.50;61.30;;;;;;8361724;28;19917;-74
2023/08/05 08:11:14;;;;;;;;;;;22.50;62.10;;;;;;8360306;28;20003;-74
2023/08/05 08:15:15;;;;;;;;;;;22.60;61.30;;;;;;8360476;28;19959;-73
2023/08/05 08:19:18;;;;;;;;;;;22.60;61.40;;;;;;8356053;28;19912;-74
2023/08/05 08:23:19;;;;;;;;;;;22.60;61.30;;;;;;8360519;28;19909;-74
2023/08/05 08:27:20;;;;;;;;;;;22.50;61.20;;;;;;8359929;28;19913;-74
2023/08/05 08:31:21;;;;;;;;;;;22.60;61.30;;;;;;8342285;28;19925;-75
2023/08/05 08:35:21;;;;;;;;;;;22.60;61.30;;;;;;8359751;28;19923;-75
2023/08/05 08:39:22;;;;;;;;;;;22.60;61.30;;;;;;8360256;28;19919;-75
2023/08/05 08:43:22;;;;;;;;;;;22.60;61.20;;;;;;8345370;28;20279;-74
2023/08/05 08:47:23;;;;;;;;;;;22.60;62.10;;;;;;8359808;28;19912;-74
2023/08/05 08:51:24;;;;;;;;;;;22.60;61.20;;;;;;8342866;28;19921;-74
2023/08/05 08:55:25;;;;;;;;;;;22.60;61.20;;;;;;8359334;28;19913;-74
2023/08/05 08:59:25;;;;;;;;;;;22.60;61.20;;;;;;8359796;28;20426;-74
2023/08/05 09:03:27;;;;;;;;;;;22.50;61.20;;;;;;8359971;28;20133;-75
2023/08/05 09:07:28;;;;;;;;;;;22.60;61.30;;;;;;8341990;28;20368;-75
2023/08/05 09:11:28;;;;;;;;;;;22.50;61.20;;;;;;8386360;28;20393;-75
2023/08/05 09:15:33;;;;;;;;;;;22.60;61.30;;;;;;8398474;28;19912;-74
2023/08/05 09:19:33;;;;;;;;;;;22.50;61.20;;;;;;8363720;28;20011;-74
2023/08/05 09:23:43;;;;;;;;;;;22.50;61.20;;;;;;8398197;28;19999;-75
2023/08/05 09:27:46;;;;;;;;;;;22.60;61.30;;;;;;8397228;28;20338;-75
2023/08/05 09:32:05;;;;;;;;;;;22.50;61.20;;;;;;8380371;28;19927;-75
2023/08/05 09:36:10;;;;;;;;;;;22.50;61.20;;;;;;8397991;28;19913;-75
2023/08/05 09:40:17;;;;;;;;;;;22.50;61.10;;;;;;8380223;28;19908;-75
2023/08/05 09:44:18;;;;;;;;;;;22.50;61.20;;;;;;8380216;28;19938;-75
2023/08/05 09:48:22;;;;;;;;;;;22.60;61.20;;;;;;8380415;28;19912;-75
2023/08/05 09:52:23;;;;;;;;;;;22.60;61.20;;;;;;8397968;28;19908;-75
2023/08/05 09:56:25;;;;;;;;;;;22.60;61.20;;;;;;8397207;28;19912;-74
2023/08/05 10:00:27;;;;;;;;;;;22.50;61.10;;;;;;8379469;28;19913;-74
2023/08/05 10:04:28;;;;;;;;;;;22.50;61.10;;;;;;8397334;28;19995;-74
2023/08/05 10:08:30;;;;;;;;;;;22.60;61.20;;;;;;8396276;28;19998;-75
2023/08/05 10:12:33;;;;;;;;;;;22.50;61.10;;;;;;8397179;28;20385;-75
2023/08/05 10:16:35;;;;;;;;;;;22.50;61.10;;;;;;8397063;28;19986;-75
2023/08/05 10:20:36;;;;;;;;;;;22.50;61.10;;;;;;8395981;28;19951;-74
2023/08/05 10:24:53;;;;;;;;;;;22.60;61.20;;;;;;8377954;28;19959;-74
2023/08/05 10:28:54;;;;;;;;;;;22.50;61.10;;;;;;8396717;28;19927;-75
2023/08/05 10:32:54;;;;;;;;;;;22.50;61.20;;;;;;8378555;28;19913;-75
2023/08/05 10:36:56;;;;;;;;;;;22.60;61.20;;;;;;8396429;28;19909;-75
2023/08/05 10:41:03;;;;;;;;;;;22.50;61.00;;;;;;8396691;28;19987;-75
2023/08/05 10:45:04;;;;;;;;;;;22.50;61.10;;;;;;8378176;28;19919;-75
2023/08/05 10:49:05;;;;;;;;;;;22.60;61.20;;;;;;8396278;28;19912;-74
2023/08/05 10:53:12;;;;;;;;;;;22.60;61.20;;;;;;8395741;28;19946;-74
2023/08/05 10:57:28;;;;;;;;;;;22.60;61.20;;;;;;8377176;28;19915;-74
2023/08/05 11:01:48;;;;;;;;;;;22.50;61.00;;;;;;8377408;28;19913;-74
2023/08/05 11:05:48;;;;;;;;;;;22.50;61.00;;;;;;8395060;28;19919;-74
2023/08/05 11:09:49;;;;;;;;;;;22.50;61.00;;;;;;8395205;28;19921;-75
2023/08/05 11:13:49;;;;;;;;;;;22.50;61.00;;;;;;8395074;28;19916;-75
2023/08/05 11:17:54;;;;;;;;;;;22.60;61.00;;;;;;8394796;28;19967;-75
2023/08/05 11:21:54;;;;;;;;;;;22.60;61.10;;;;;;8394817;28;19930;-74
2023/08/05 11:25:57;;;;;;;;;;;22.60;61.00;;;;;;8394133;28;20401;-75
2023/08/05 11:29:58;;;;;;;;;;;22.60;61.00;;;;;;8394424;28;19916;-74
2023/08/05 11:33:58;;;;;;;;;;;22.60;61.10;;;;;;8393766;28;20369;-74
2023/08/05 11:37:59;;;;;;;;;;;22.60;61.10;;;;;;8394050;28;20248;-74
2023/08/05 11:42:00;;;;;;;;;;;22.60;61.10;;;;;;8394180;28;19962;-75
2023/08/05 11:46:01;;;;;;;;;;;22.50;61.00;;;;;;8393862;28;19966;-75
2023/08/05 11:50:02;;;;;;;;;;;22.50;61.00;;;;;;8393928;28;19916;-74
2023/08/05 11:54:02;;;;;;;;;;;22.50;60.80;;;;;;8376031;28;19962;-74
2023/08/05 11:58:04;;;;;;;;;;;22.50;60.90;;;;;;8393047;28;20041;-75
2023/08/05 12:02:04;;;;;;;;;;;22.50;59.90;;;;;;8375014;28;20015;-75
2023/08/05 12:06:05;;;;;;;;;;;22.50;59.60;;;;;;8393648;28;19923;-75
2023/08/05 12:10:07;;;;;;;;;;;22.30;56.00;;;;;;8393275;28;20492;-75
2023/08/05 12:14:11;;;;;;;;;;;22.30;57.20;;;;;;8393481;28;20354;-74
2023/08/05 12:18:11;;;;;;;;;;;22.30;57.00;;;;;;8375525;28;20007;-74
2023/08/05 12:22:12;;;;;;;;;;;22.30;55.80;;;;;;8393128;28;19917;-75
2023/08/05 12:26:15;;;;;;;;;;;22.30;54.90;;;;;;8392752;28;20393;-75
2023/08/05 12:30:16;;;;;;;;;;;22.30;54.20;;;;;;8393189;28;20359;-75
2023/08/05 12:34:17;;;;;;;;;;;22.30;55.20;;;;;;8392846;28;19912;-75
2023/08/05 12:38:18;;;;;;;;;;;22.30;53.80;;;;;;8358682;28;20211;-74
2023/08/05 12:42:18;;;;;;;;;;;22.30;54.00;;;;;;8358242;28;19913;-72
2023/08/05 12:46:19;;;;;;;;;;;22.40;55.10;;;;;;8397295;28;20379;-74
2023/08/05 12:50:19;;;;;;;;;;;22.30;55.40;;;;;;8399315;28;20262;-74
2023/08/05 12:54:20;;;;;;;;;;;22.40;55.00;;;;;;8381817;28;20439;-74
2023/08/05 12:58:20;;;;;;;;;;;22.40;55.00;;;;;;8381217;28;19912;-73
2023/08/05 13:02:23;;;;;;;;;;;22.50;55.50;;;;;;8399235;28;19943;-74
2023/08/05 13:06:23;;;;;;;;;;;22.40;55.70;;;;;;8364675;28;19913;-74
2023/08/05 13:10:24;;;;;;;;;;;22.50;55.90;;;;;;8380635;28;19921;-74
2023/08/05 13:14:24;;;;;;;;;;;22.50;55.80;;;;;;8398794;28;19919;-74
2023/08/05 13:18:25;;;;;;;;;;;22.50;55.50;;;;;;8397986;28;19917;-72
2023/08/05 13:22:25;;;;;;;;;;;22.50;55.40;;;;;;8398846;28;19962;-70
2023/08/05 13:26:26;;;;;;;;;;;22.50;55.10;;;;;;8397940;28;19958;-70
2023/08/05 13:30:26;;;;;;;;;;;22.50;55.00;;;;;;8380144;28;19970;-69
2023/08/05 13:34:29;;;;;;;;;;;22.50;55.30;;;;;;8397787;28;20146;-70
2023/08/05 13:38:29;;;;;;;;;;;22.40;55.50;;;;;;8386283;28;20008;-70
2023/08/05 13:42:30;;;;;;;;;;;22.50;53.80;;;;;;8366814;28;19916;-71
2023/08/05 13:46:30;;;;;;;;;;;22.50;54.60;;;;;;8364931;28;19916;-71
2023/08/05 13:50:31;;;;;;;;;;;22.60;53.70;;;;;;8364848;28;19924;-72
2023/08/05 13:54:31;;;;;;;;;;;22.70;54.10;;;;;;8332003;28;19944;-72
2023/08/05 13:58:32;;;;;;;;;;;22.70;53.60;;;;;;8377579;28;20361;-71
2023/08/05 14:02:32;;;;;;;;;;;22.70;52.70;;;;;;8393292;28;19912;-72
2023/08/05 14:06:33;;;;;;;;;;;22.70;52.10;;;;;;8359336;28;19939;-72
2023/08/05 14:10:33;;;;;;;;;;;22.80;52.60;;;;;;8368025;28;19925;-73
2023/08/05 14:14:34;;;;;;;;;;;22.80;52.60;;;;;;8386365;28;19923;-74
2023/08/05 14:18:35;;;;;;;;;;;22.80;51.90;;;;;;8357440;28;19917;-76
2023/08/05 14:22:35;;;;;;;;;;;22.80;52.70;;;;;;8375133;28;20007;-76
2023/08/05 14:26:36;;;;;;;;;;;22.80;52.90;;;;;;8374363;28;19912;-76
2023/08/05 14:30:37;;;;;;;;;;;22.80;52.40;;;;;;8356629;28;20546;-76
2023/08/05 14:34:37;;;;;;;;;;;22.80;51.80;;;;;;8364910;28;19925;-77
2023/08/05 14:38:38;;;;;;;;;;;22.80;51.30;;;;;;8374730;28;20061;-77
2023/08/05 14:42:38;;;;;;;;;;;22.90;49.70;;;;;;8339971;28;19970;-78
2023/08/05 14:46:39;;;;;;;;;;;22.90;49.80;;;;;;8357224;28;19920;-77
2023/08/05 14:50:39;;;;;;;;;;;23.00;49.40;;;;;;8374131;28;19912;-77
2023/08/05 14:54:40;;;;;;;;;;;23.10;49.80;;;;;;8356321;28;21160;-78
2023/08/05 14:58:41;;;;;;;;;;;23.00;50.00;;;;;;8374238;28;19921;-78
2023/08/05 15:02:41;;;;;;;;;;;23.10;49.90;;;;;;8355592;28;20378;-78
2023/08/05 15:06:42;;;;;;;;;;;23.00;50.60;;;;;;8374219;28;19923;-78
2023/08/05 15:10:42;;;;;;;;;;;23.10;49.80;;;;;;8373756;28;19925;-79
2023/08/05 15:14:43;;;;;;;;;;;23.10;50.40;;;;;;8368981;28;19912;-79
2023/08/05 15:18:43;;;;;;;;;;;23.10;50.40;;;;;;8397694;28;19970;-78
2023/08/05 15:22:44;;;;;;;;;;;23.10;50.70;;;;;;8379952;28;19963;-74
2023/08/05 15:26:44;;;;;;;;;;;23.10;51.20;;;;;;8404400;28;19939;-75
2023/08/05 15:30:45;;;;;;;;;;;23.00;50.00;;;;;;8414618;28;19966;-77
2023/08/05 15:34:46;;;;;;;;;;;22.90;50.70;;;;;;8418797;28;19946;-76
2023/08/05 15:38:46;;;;;;;;;;;23.00;51.30;;;;;;8402806;28;19916;-77
2023/08/05 15:42:47;;;;;;;;;;;23.00;50.40;;;;;;8438758;28;19900;-76
2023/08/05 15:46:47;;;;;;;;;;;23.00;50.30;;;;;;8422209;28;19968;-77
2023/08/05 15:50:48;;;;;;;;;;;23.10;51.50;;;;;;8438935;28;19905;-77
2023/08/05 15:54:49;;;;;;;;;;;23.10;51.50;;;;;;8402021;28;19920;-77
2023/08/05 15:58:50;;;;;;;;;;;23.00;51.00;;;;;;8386580;28;19920;-78
2023/08/05 16:02:51;;;;;;;;;;;23.00;50.80;;;;;;8391894;28;20389;-78
2023/08/05 16:06:51;;;;;;;;;;;23.00;51.30;;;;;;8355726;28;20392;-77
2023/08/05 16:11:18;;;;;;;;;;;23.00;48.80;;;;;;8396777;28;19974;-77
2023/08/05 16:15:19;;;;;;;;;;;23.00;50.90;;;;;;8359791;28;19913;-78
2023/08/05 16:19:20;;;;;;;;;;;23.00;48.40;;;;;;8363473;28;19932;-78
2023/08/05 16:23:21;;;;;;;;;;;23.00;49.30;;;;;;8374013;28;19916;-78
2023/08/05 16:27:22;;;;;;;;;;;23.00;50.10;;;;;;8373992;28;19917;-79
2023/08/05 16:31:23;;;;;;;;;;;23.00;50.50;;;;;;8374300;28;19924;-78
2023/08/05 16:35:24;;;;;;;;;;;23.00;50.60;;;;;;8374240;28;19912;-78
2023/08/05 16:39:24;;;;;;;;;;;23.00;50.50;;;;;;8356167;28;20397;-78
2023/08/05 16:43:25;;;;;;;;;;;23.00;50.90;;;;;;8339396;28;20394;-79
2023/08/05 16:47:26;;;;;;;;;;;23.00;50.20;;;;;;8373942;28;19908;-77
2023/08/05 16:51:26;;;;;;;;;;;22.90;50.60;;;;;;8374082;28;19921;-77
2023/08/05 16:55:27;;;;;;;;;;;22.90;50.00;;;;;;8378497;28;19958;-76
2023/08/05 16:59:27;;;;;;;;;;;22.80;50.50;;;;;;8380873;28;19953;-77
2023/08/05 17:03:28;;;;;;;;;;;22.80;50.40;;;;;;8411772;28;19916;-76
2023/08/05 17:07:29;;;;;;;;;;;22.90;50.60;;;;;;8376409;28;19921;-80
2023/08/05 17:11:29;;;;;;;;;;;23.00;51.20;;;;;;8317559;28;20016;-77
2023/08/05 17:15:30;;;;;;;;;;;23.00;51.20;;;;;;8334572;28;19914;-80
2023/08/05 17:19:30;;;;;;;;;;;23.00;51.70;;;;;;8332413;28;20371;-79
2023/08/05 17:23:31;;;;;;;;;;;23.00;52.00;;;;;;8330758;28;19913;-81
2023/08/05 17:27:31;;;;;;;;;;;23.00;51.90;;;;;;8329450;28;20286;-75
2023/08/05 17:31:32;;;;;;;;;;;23.00;51.90;;;;;;8331225;28;19933;-75
2023/08/05 17:35:33;;;;;;;;;;;23.10;52.10;;;;;;8342219;28;20008;-76
2023/08/05 17:39:34;;;;;;;;;;;23.10;52.20;;;;;;8337945;28;20448;-75
2023/08/05 17:43:34;;;;;;;;;;;23.10;52.70;;;;;;8334746;28;20326;-74
2023/08/05 17:47:35;;;;;;;;;;;23.20;53.00;;;;;;8334069;28;20259;-74
2023/08/05 17:51:35;;;;;;;;;;;23.20;53.40;;;;;;8334980;28;19921;-75
2023/08/05 17:55:37;;;;;;;;;;;23.20;53.50;;;;;;8335092;28;19913;-76
2023/08/05 17:59:37;;;;;;;;;;;23.30;54.40;;;;;;8335142;28;19913;-80
2023/08/05 18:03:38;;;;;;;;;;;23.30;53.90;;;;;;8331787;28;19918;-74
2023/08/05 18:07:38;;;;;;;;;;;23.30;54.30;;;;;;8334641;28;19921;-76
2023/08/05 18:11:39;;;;;;;;;;;23.30;54.60;;;;;;8340504;28;19932;-74
2023/08/05 18:15:39;;;;;;;;;;;23.30;54.70;;;;;;8367030;28;19909;-78
2023/08/05 18:19:40;;;;;;;;;;;23.20;55.20;;;;;;8365820;28;19913;-77
2023/08/05 18:23:42;;;;;;;;;;;23.20;54.40;;;;;;8365629;28;19912;-79
2023/08/05 18:27:42;;;;;;;;;;;23.20;54.80;;;;;;8364723;28;19967;-81
2023/08/05 18:31:43;;;;;;;;;;;23.20;55.00;;;;;;8340102;28;19921;-80
2023/08/05 18:35:47;;;;;;;;;;;23.20;55.20;;;;;;8341985;28;20035;-79
2023/08/05 18:39:48;;;;;;;;;;;23.20;55.60;;;;;;8342566;28;19959;-80
2023/08/05 18:43:48;;;;;;;;;;;23.20;55.80;;;;;;8342690;28;20014;-76
2023/08/05 18:47:49;;;;;;;;;;;23.20;55.60;;;;;;8341799;28;19909;-79
2023/08/05 18:51:50;;;;;;;;;;;23.30;56.30;;;;;;8342073;28;19963;-79
2023/08/05 18:55:50;;;;;;;;;;;23.30;56.50;;;;;;8342114;28;19943;-74
2023/08/05 18:59:51;;;;;;;;;;;23.30;56.40;;;;;;8335101;28;19933;-74
2023/08/05 19:03:51;;;;;;;;;;;23.30;56.20;;;;;;8342228;28;19955;-79
2023/08/05 19:07:52;;;;;;;;;;;23.30;56.60;;;;;;8309086;28;20290;-77
2023/08/05 19:11:52;;;;;;;;;;;23.30;56.60;;;;;;8341841;28;19929;-79
2023/08/05 19:15:59;;;;;;;;;;;23.30;56.70;;;;;;8316737;28;19923;-79
2023/08/05 19:20:00;;;;;;;;;;;23.30;57.20;;;;;;8343187;28;19909;-79
2023/08/05 19:24:00;;;;;;;;;;;23.30;57.40;;;;;;8342661;28;19924;-79
2023/08/05 19:28:01;;;;;;;;;;;23.30;57.70;;;;;;8338335;28;19921;-79
2023/08/05 19:32:01;;;;;;;;;;;23.30;57.40;;;;;;8349718;28;19970;-79
2023/08/05 19:36:09;;;;;;;;;;;23.30;57.60;;;;;;8316817;28;19928;-78
2023/08/05 19:40:09;;;;;;;;;;;23.40;58.70;;;;;;8341410;28;19909;-77
2023/08/05 19:44:10;;;;;;;;;;;23.40;58.20;;;;;;8324193;28;19971;-76
2023/08/05 19:48:10;;;;;;;;;;;23.40;58.70;;;;;;8332591;28;19975;-76
2023/08/05 19:52:11;;;;;;;;;;;23.40;58.30;;;;;;8341420;28;19917;-77
2023/08/05 19:56:12;;;;;;;;;;;23.40;58.00;;;;;;8340145;28;19943;-76
2023/08/05 20:00:12;;;;;;;;;;;23.40;58.00;;;;;;8319399;28;19920;-76
2023/08/05 20:04:13;;;;;;;;;;;23.40;58.10;;;;;;8331801;28;19921;-78
2023/08/05 20:08:13;;;;;;;;;;;23.40;58.20;;;;;;8307880;28;20035;-77
2023/08/05 20:12:14;;;;;;;;;;;23.40;58.30;;;;;;8339327;28;20067;-77
2023/08/05 20:16:15;;;;;;;;;;;23.30;57.90;;;;;;8341090;28;19931;-76
2023/08/05 20:20:16;;;;;;;;;;;23.30;57.90;;;;;;8324079;28;19921;-74
2023/08/05 20:24:16;;;;;;;;;;;23.30;58.10;;;;;;8307092;28;19951;-75
2023/08/05 20:28:18;;;;;;;;;;;23.30;58.10;;;;;;8323433;28;20003;-81
2023/08/05 20:32:18;;;;;;;;;;;23.30;58.30;;;;;;8341176;28;19920;-81
2023/08/05 20:36:19;;;;;;;;;;;23.30;58.20;;;;;;8340831;28;19921;-82
2023/08/05 20:40:20;;;;;;;;;;;23.30;58.20;;;;;;8322818;28;20363;-78
2023/08/05 20:44:20;;;;;;;;;;;23.30;58.10;;;;;;8323410;28;20301;-78
2023/08/05 20:48:21;;;;;;;;;;;23.30;58.10;;;;;;8341147;28;20206;-78
2023/08/05 20:52:22;;;;;;;;;;;23.40;58.10;;;;;;8339397;28;19928;-79
2023/08/05 20:56:22;;;;;;;;;;;23.40;58.10;;;;;;8331163;28;19991;-79
2023/08/05 21:00:23;;;;;;;;;;;23.30;58.20;;;;;;8340306;28;19917;-78
2023/08/05 21:04:23;;;;;;;;;;;23.40;58.60;;;;;;8348128;28;20413;-83
2023/08/05 21:08:24;;;;;;;;;;;23.30;58.30;;;;;;8343213;28;19936;-76
2023/08/05 21:12:24;;;;;;;;;;;23.40;58.40;;;;;;8329325;28;19929;-76
2023/08/05 21:16:25;;;;;;;;;;;23.30;58.40;;;;;;8319574;28;19909;-77
2023/08/05 21:20:25;;;;;;;;;;;23.30;58.50;;;;;;8334450;28;19913;-75
2023/08/05 21:24:26;;;;;;;;;;;23.30;58.50;;;;;;8334406;28;19920;-77
2023/08/05 21:28:27;;;;;;;;;;;23.30;58.40;;;;;;8335506;28;19913;-78
2023/08/05 21:32:27;;;;;;;;;;;23.40;58.40;;;;;;8334181;28;20267;-79
2023/08/05 21:36:28;;;;;;;;;;;23.40;58.40;;;;;;8333981;28;19913;-79
2023/08/05 21:40:28;;;;;;;;;;;23.30;58.70;;;;;;8317690;28;19920;-74
2023/08/05 21:44:29;;;;;;;;;;;23.30;58.80;;;;;;8350315;28;20303;-75
2023/08/05 21:48:30;;;;;;;;;;;23.30;58.70;;;;;;8333842;28;20004;-77
2023/08/05 21:52:30;;;;;;;;;;;23.40;58.70;;;;;;8335110;28;19920;-73
2023/08/05 21:56:33;;;;;;;;;;;23.40;58.60;;;;;;8333342;28;19923;-79
2023/08/05 22:00:34;;;;;;;;;;;23.40;58.70;;;;;;8333874;28;20428;-75
2023/08/05 22:04:35;;;;;;;;;;;23.40;59.00;;;;;;8327510;28;19913;-76
2023/08/05 22:08:35;;;;;;;;;;;23.30;59.10;;;;;;8312715;28;19948;-74
2023/08/05 22:12:36;;;;;;;;;;;23.40;59.00;;;;;;8373229;28;19923;-76
2023/08/05 22:16:37;;;;;;;;;;;23.30;59.10;;;;;;8381964;28;19909;-77
2023/08/05 22:20:37;;;;;;;;;;;23.30;59.00;;;;;;8398791;28;20022;-75
2023/08/05 22:24:39;;;;;;;;;;;23.40;59.20;;;;;;8368712;28;20287;-74
2023/08/05 22:28:40;;;;;;;;;;;23.40;59.00;;;;;;8381959;28;20369;-75
2023/08/05 22:32:40;;;;;;;;;;;23.40;59.00;;;;;;8365193;28;20285;-78
2023/08/05 22:36:41;;;;;;;;;;;23.40;59.00;;;;;;8399487;28;19919;-74
2023/08/05 22:40:41;;;;;;;;;;;23.40;59.20;;;;;;8373157;28;19982;-76
2023/08/05 22:44:42;;;;;;;;;;;23.40;59.20;;;;;;8366081;28;20007;-75
2023/08/05 22:48:43;;;;;;;;;;;23.40;59.10;;;;;;8353705;28;20053;-75
2023/08/05 22:52:43;;;;;;;;;;;23.40;59.40;;;;;;8398940;28;19963;-77
2023/08/05 22:56:45;;;;;;;;;;;23.40;59.40;;;;;;8398661;28;19948;-76
2023/08/05 23:00:46;;;;;;;;;;;23.40;59.40;;;;;;8381060;28;19919;-72
2023/08/05 23:04:47;;;;;;;;;;;23.40;59.70;;;;;;8397620;28;19921;-78
2023/08/05 23:08:48;;;;;;;;;;;23.50;59.80;;;;;;8345838;28;19917;-74
2023/08/05 23:12:50;;;;;;;;;;;23.40;60.10;;;;;;8374818;28;20341;-76
2023/08/05 23:16:50;;;;;;;;;;;23.30;58.50;;;;;;8374812;28;19939;-76
2023/08/05 23:20:51;;;;;;;;;;;23.20;58.60;;;;;;8394091;28;19912;-75